createdAt,value
2023-02-15T00:01:11.444Z,34.17
2023-02-15T00:03:49.849Z,34.07
2023-02-15T00:06:24.974Z,34.45
2023-02-15T00:09:00.552Z,33.90
2023-02-15T00:11:41.201Z,34.72
2023-02-15T00:14:22.838Z,35.60
2023-02-15T00:17:00.695Z,31.73
2023-02-15T00:19:35.776Z,37.25
2023-02-15T00:22:10.752Z,33.38
2023-02-15T00:24:45.746Z,33.08
2023-02-15T00:27:20.771Z,32.10
2023-02-15T00:29:55.719Z,37.40
2023-02-15T00:32:30.699Z,31.80
2023-02-15T00:35:06.206Z,30.77
2023-02-15T00:37:42.521Z,32.90
2023-02-15T00:40:17.517Z,33.47
2023-02-15T00:42:52.493Z,28.75
2023-02-15T00:45:27.369Z,29.50
2023-02-15T00:48:02.258Z,29.65
2023-02-15T00:50:37.129Z,27.63
2023-02-15T00:53:12.068Z,29.40
2023-02-15T00:55:47.417Z,29.15
2023-02-15T00:58:22.452Z,27.38
2023-02-15T01:01:08.448Z,26.08
2023-02-15T01:03:44.305Z,30.25
2023-02-15T01:06:19.674Z,30.77
2023-02-15T01:08:55.832Z,25.85
2023-02-15T01:11:30.870Z,33.80
2023-02-15T01:14:06.442Z,30.23
2023-02-15T01:16:41.402Z,32.65
2023-02-15T01:19:16.299Z,24.67
2023-02-15T01:21:51.199Z,27.42
2023-02-15T01:24:26.109Z,26.23
2023-02-15T01:27:01.044Z,28.80
2023-02-15T01:29:35.972Z,27.27
2023-02-15T01:32:11.225Z,26.83
2023-02-15T01:34:46.275Z,26.10
2023-02-15T01:37:21.917Z,27.23
2023-02-15T01:39:56.867Z,28.88
2023-02-15T01:42:32.323Z,30.98
2023-02-15T01:45:30.720Z,27.30
2023-02-15T01:48:18.992Z,27.10
2023-02-15T01:50:57.908Z,28.75
2023-02-15T01:53:44.220Z,28.58
2023-02-15T01:56:25.028Z,28.50
2023-02-15T01:59:05.868Z,27.38
2023-02-15T02:01:40.847Z,24.85
2023-02-15T02:04:34.958Z,27.52
2023-02-15T02:07:33.454Z,26.27
2023-02-15T02:10:11.861Z,25.02
2023-02-15T02:12:48.498Z,27.15
2023-02-15T02:15:54.192Z,27.15
2023-02-15T02:19:01.290Z,25.38
2023-02-15T02:22:03.388Z,29.23
2023-02-15T02:25:19.552Z,26.02
2023-02-15T02:28:19.407Z,27.35
2023-02-15T02:31:24.773Z,23.40
2023-02-15T02:34:21.568Z,30.35
2023-02-15T02:37:49.860Z,28.80
2023-02-15T02:40:47.248Z,27.65
2023-02-15T02:43:30.197Z,26.80
2023-02-15T02:46:35.618Z,28.65
2023-02-15T02:49:10.588Z,25.33
2023-02-15T02:51:45.534Z,29.52
2023-02-15T02:54:23.356Z,28.25
2023-02-15T02:57:02.912Z,30.73
2023-02-15T02:59:43.233Z,25.73
2023-02-15T03:02:30.242Z,25.25
2023-02-15T03:05:14.925Z,28.27
2023-02-15T03:07:52.868Z,26.60
2023-02-15T03:10:30.478Z,23.88
2023-02-15T03:13:06.811Z,30.00
2023-02-15T03:16:04.141Z,24.25
2023-02-15T03:18:53.776Z,24.77
2023-02-15T03:21:58.269Z,24.33
2023-02-15T03:25:01.783Z,23.50
2023-02-15T03:27:48.621Z,23.80
2023-02-15T03:30:25.161Z,27.48
2023-02-15T03:33:05.665Z,25.92
2023-02-15T03:36:20.122Z,27.05
2023-02-15T03:39:23.770Z,28.42
2023-02-15T03:42:10.984Z,26.15
2023-02-15T03:45:10.588Z,30.95
2023-02-15T03:47:52.066Z,30.30
2023-02-15T03:50:52.536Z,30.92
2023-02-15T03:53:28.097Z,23.42
2023-02-15T03:56:04.060Z,26.30
2023-02-15T03:58:58.025Z,26.50
2023-02-15T04:02:00.618Z,32.17
2023-02-15T04:04:40.129Z,28.45
2023-02-15T04:07:15.388Z,31.30
2023-02-15T04:10:10.425Z,40.95
2023-02-15T04:12:45.569Z,35.78
2023-02-15T04:15:39.396Z,30.85
2023-02-15T04:18:15.396Z,35.15
2023-02-15T04:21:08.885Z,33.53
2023-02-15T04:24:02.554Z,29.00
2023-02-15T04:26:40.139Z,32.25
2023-02-15T04:29:16.562Z,29.65
2023-02-15T04:31:53.505Z,24.67
2023-02-15T04:34:29.380Z,29.67
2023-02-15T04:37:05.630Z,31.52
2023-02-15T04:39:41.314Z,27.40
2023-02-15T04:42:19.221Z,29.83
2023-02-15T04:44:57.153Z,29.75
2023-02-15T04:47:32.366Z,31.42
2023-02-15T04:50:08.334Z,31.83
2023-02-15T04:52:43.610Z,30.45
2023-02-15T04:55:18.799Z,32.88
2023-02-15T04:57:53.813Z,31.02
2023-02-15T05:00:29.037Z,27.75
2023-02-15T05:03:07.028Z,30.63
2023-02-15T05:05:42.170Z,30.48
2023-02-15T05:08:17.507Z,30.35
2023-02-15T05:10:57.960Z,30.45
2023-02-15T05:13:33.379Z,25.95
2023-02-15T05:16:09.017Z,23.85
2023-02-15T05:18:48.984Z,37.85
2023-02-15T05:21:24.695Z,28.30
2023-02-15T05:23:59.797Z,29.70
2023-02-15T05:26:53.285Z,27.13
2023-02-15T05:29:28.330Z,26.85
2023-02-15T05:32:05.180Z,24.20
2023-02-15T05:34:40.213Z,25.88
2023-02-15T05:37:15.213Z,23.63
2023-02-15T05:39:50.249Z,24.35
2023-02-15T05:42:25.245Z,21.77
2023-02-15T05:45:00.498Z,23.02
2023-02-15T05:47:35.733Z,29.60
2023-02-15T05:50:12.720Z,20.58
2023-02-15T05:52:47.963Z,19.10
2023-02-15T05:55:23.064Z,23.02
2023-02-15T05:57:58.215Z,23.25
2023-02-15T06:00:33.723Z,18.35
2023-02-15T06:03:10.095Z,24.35
2023-02-15T06:05:47.857Z,20.00
2023-02-15T06:08:25.703Z,24.65
2023-02-15T06:11:05.308Z,20.55
2023-02-15T06:13:40.245Z,20.45
2023-02-15T06:16:17.222Z,19.90
2023-02-15T06:18:55.153Z,19.85
2023-02-15T06:21:31.474Z,25.52
2023-02-15T06:24:09.106Z,20.73
2023-02-15T06:26:45.487Z,22.65
2023-02-15T06:29:20.761Z,21.02
2023-02-15T06:31:56.113Z,22.40
2023-02-15T06:34:33.618Z,23.15
2023-02-15T06:37:09.509Z,30.58
2023-02-15T06:39:45.642Z,26.23
2023-02-15T06:42:21.081Z,21.50
2023-02-15T06:44:56.518Z,28.27
2023-02-15T06:47:31.857Z,23.50
2023-02-15T06:50:09.839Z,23.42
2023-02-15T06:52:45.092Z,21.95
2023-02-15T06:55:23.338Z,23.77
2023-02-15T06:57:58.861Z,23.13
2023-02-15T07:00:34.080Z,23.63
2023-02-15T07:03:10.230Z,28.77
2023-02-15T07:05:46.460Z,26.13
2023-02-15T07:08:21.583Z,26.98
2023-02-15T07:11:20.302Z,22.33
2023-02-15T07:13:55.683Z,25.63
2023-02-15T07:16:31.150Z,25.55
2023-02-15T07:19:06.362Z,22.73
2023-02-15T07:21:41.535Z,24.38
2023-02-15T07:24:17.016Z,19.67
2023-02-15T07:26:52.186Z,23.55
2023-02-15T07:29:27.546Z,23.55
2023-02-15T07:32:02.539Z,29.42
2023-02-15T07:34:41.335Z,25.55
2023-02-15T07:37:16.302Z,24.08
2023-02-15T07:39:52.663Z,23.02
2023-02-15T07:42:27.854Z,21.23
2023-02-15T07:45:02.787Z,27.10
2023-02-15T07:47:37.848Z,24.00
2023-02-15T07:50:12.908Z,21.97
2023-02-15T07:52:47.832Z,22.85
2023-02-15T07:55:23.021Z,27.43
2023-02-15T07:57:58.062Z,22.80
2023-02-15T08:00:52.996Z,19.95
2023-02-15T08:03:30.014Z,23.27
2023-02-15T08:06:05.297Z,21.27
2023-02-15T08:08:41.467Z,22.30
2023-02-15T08:11:34.380Z,22.90
2023-02-15T08:14:21.294Z,19.33
2023-02-15T08:16:57.713Z,20.80
2023-02-15T08:19:33.547Z,20.30
2023-02-15T08:22:13.180Z,24.13
2023-02-15T08:24:48.163Z,22.87
2023-02-15T08:27:27.671Z,22.58
2023-02-15T08:30:02.642Z,26.93
2023-02-15T08:32:38.660Z,21.88
2023-02-15T08:35:13.534Z,26.42
2023-02-15T08:37:48.427Z,24.70
2023-02-15T08:40:23.333Z,22.17
2023-02-15T08:42:58.206Z,25.60
2023-02-15T08:45:33.374Z,22.90
2023-02-15T08:48:08.354Z,22.57
2023-02-15T08:50:43.297Z,26.60
2023-02-15T08:53:22.442Z,36.07
2023-02-15T08:55:58.947Z,23.67
2023-02-15T08:58:35.050Z,24.50
2023-02-15T09:01:12.911Z,20.80
2023-02-15T09:03:50.763Z,23.93
2023-02-15T09:06:26.593Z,26.67
2023-02-15T09:09:01.934Z,24.33
2023-02-15T09:11:41.317Z,22.00
2023-02-15T09:14:22.560Z,31.17
2023-02-15T09:16:57.611Z,22.07
2023-02-15T09:19:32.685Z,20.17
2023-02-15T09:22:07.662Z,21.37
2023-02-15T09:24:42.620Z,21.33
2023-02-15T09:27:17.619Z,24.03
2023-02-15T09:29:52.510Z,24.97
2023-02-15T09:32:27.364Z,21.37
2023-02-15T09:35:02.276Z,24.33
2023-02-15T09:37:37.192Z,27.53
2023-02-15T09:40:15.684Z,27.40
2023-02-15T09:43:44.958Z,26.20
2023-02-15T09:46:38.791Z,23.97
2023-02-15T09:49:40.411Z,22.60
2023-02-15T09:52:49.143Z,21.80
2023-02-15T09:55:53.939Z,21.00
2023-02-15T09:59:05.017Z,23.57
2023-02-15T10:01:58.388Z,22.33
2023-02-15T10:04:51.633Z,25.50
2023-02-15T10:08:08.466Z,24.67
2023-02-15T10:11:26.748Z,30.60
2023-02-15T10:14:09.487Z,28.83
2023-02-15T10:16:57.683Z,26.87
2023-02-15T10:20:12.299Z,28.10
2023-02-15T10:23:29.791Z,32.63
2023-02-15T10:26:23.875Z,28.73
2023-02-15T10:29:10.935Z,30.40
2023-02-15T10:32:00.718Z,28.77
2023-02-15T10:34:41.282Z,26.00
2023-02-15T10:37:54.450Z,28.07
2023-02-15T10:40:46.451Z,30.67
2023-02-15T10:44:09.173Z,29.13
2023-02-15T10:47:32.094Z,30.00
2023-02-15T10:50:41.487Z,28.70
2023-02-15T10:53:33.495Z,31.50
2023-02-15T10:56:30.797Z,29.63
2023-02-15T10:59:57.048Z,31.70
2023-02-15T11:02:47.550Z,27.77
2023-02-15T11:06:11.858Z,30.60
2023-02-15T11:08:56.141Z,24.80
2023-02-15T11:11:36.098Z,28.33
2023-02-15T11:14:43.428Z,27.10
2023-02-15T11:17:25.300Z,29.83
2023-02-15T11:20:26.322Z,25.80
2023-02-15T11:23:03.611Z,23.10
2023-02-15T11:25:39.088Z,25.97
2023-02-15T11:28:38.259Z,26.60
2023-02-15T11:31:23.707Z,26.73
2023-02-15T11:34:05.796Z,29.70
2023-02-15T11:36:43.097Z,24.70
2023-02-15T11:39:21.056Z,27.27
2023-02-15T11:42:11.532Z,24.00
2023-02-15T11:45:23.802Z,23.27
2023-02-15T11:48:00.487Z,27.20
2023-02-15T11:50:35.509Z,23.77
2023-02-15T11:53:22.163Z,23.93
2023-02-15T11:55:57.338Z,25.37
2023-02-15T11:58:42.590Z,27.27
2023-02-15T12:01:32.973Z,24.70
2023-02-15T12:04:42.271Z,21.23
2023-02-15T12:08:01.888Z,26.30
2023-02-15T12:10:48.918Z,21.60
2023-02-15T12:13:24.558Z,24.03
2023-02-15T12:16:06.964Z,21.23
2023-02-15T12:18:45.531Z,23.73
2023-02-15T12:21:40.801Z,22.97
2023-02-15T12:24:26.265Z,24.23
2023-02-15T12:27:16.162Z,26.17
2023-02-15T12:29:56.519Z,18.93
2023-02-15T12:32:36.142Z,23.80
2023-02-15T12:35:27.268Z,23.07
2023-02-15T12:38:10.801Z,27.77
2023-02-15T12:41:03.246Z,26.97
2023-02-15T12:43:39.285Z,26.20
2023-02-15T12:46:27.230Z,25.90
2023-02-15T12:49:23.398Z,23.80
2023-02-15T12:52:00.746Z,26.60
2023-02-15T12:54:42.998Z,27.93
2023-02-15T12:57:33.929Z,23.40
2023-02-15T13:00:21.879Z,25.23
2023-02-15T13:02:59.007Z,25.07
2023-02-15T13:05:39.511Z,23.83
2023-02-15T13:08:32.825Z,25.13
2023-02-15T13:11:12.886Z,29.63
2023-02-15T13:13:57.258Z,28.33
2023-02-15T13:16:39.228Z,23.60
2023-02-15T13:19:24.376Z,25.23
2023-02-15T13:22:03.812Z,22.57
2023-02-15T13:24:45.425Z,25.40
2023-02-15T13:27:25.102Z,28.53
2023-02-15T13:30:05.961Z,27.43
2023-02-15T13:32:43.363Z,24.90
2023-02-15T13:35:20.018Z,25.80
2023-02-15T13:38:22.767Z,23.03
2023-02-15T13:41:10.497Z,22.03
2023-02-15T13:44:46.693Z,25.07
2023-02-15T13:47:29.181Z,22.20
2023-02-15T13:50:32.752Z,26.80
2023-02-15T13:53:07.504Z,22.03
2023-02-15T13:55:51.014Z,23.60
2023-02-15T13:59:11.048Z,21.10
2023-02-15T14:02:23.007Z,22.90
2023-02-15T14:05:44.660Z,20.20
2023-02-15T14:08:51.474Z,21.90
2023-02-15T14:11:55.364Z,19.23
2023-02-15T14:14:57.934Z,21.50
2023-02-15T14:17:54.401Z,19.43
2023-02-15T14:20:58.611Z,22.03
2023-02-15T14:24:04.056Z,18.90
2023-02-15T14:27:05.805Z,18.67
2023-02-15T14:29:58.900Z,23.43
2023-02-15T14:32:42.951Z,17.30
2023-02-15T14:35:25.758Z,19.50
2023-02-15T14:39:07.117Z,18.33
2023-02-15T14:41:54.550Z,14.70
2023-02-15T14:44:41.185Z,14.90
2023-02-15T14:47:28.140Z,16.87
2023-02-15T14:50:32.219Z,18.33
2023-02-15T14:53:38.523Z,16.33
2023-02-15T14:56:21.902Z,17.40
2023-02-15T14:59:00.787Z,17.97
2023-02-15T15:01:37.881Z,16.67
2023-02-15T15:04:46.830Z,17.23
2023-02-15T15:07:46.573Z,16.30
2023-02-15T15:10:21.652Z,16.77
2023-02-15T15:12:57.940Z,16.00
2023-02-15T15:15:32.874Z,15.17
2023-02-15T15:18:09.911Z,17.20
2023-02-15T15:20:51.592Z,16.73
2023-02-15T15:23:45.546Z,16.83
2023-02-15T15:26:28.188Z,16.87
2023-02-15T15:29:04.293Z,16.77
2023-02-15T15:31:49.548Z,16.37
2023-02-15T15:35:12.879Z,15.67
2023-02-15T15:38:30.182Z,16.80
2023-02-15T15:41:10.921Z,15.93
2023-02-15T15:44:28.891Z,18.90
2023-02-15T15:47:34.774Z,16.77
2023-02-15T15:50:17.478Z,17.53
2023-02-15T15:52:58.145Z,18.00
2023-02-15T15:55:35.271Z,18.30
2023-02-15T15:58:18.016Z,18.17
2023-02-15T16:01:07.392Z,20.27
2023-02-15T16:03:55.107Z,19.43
2023-02-15T16:06:37.318Z,18.77
2023-02-15T16:09:24.056Z,21.13
2023-02-15T16:12:02.675Z,22.43
2023-02-15T16:14:40.645Z,23.00
2023-02-15T16:17:22.474Z,20.67
2023-02-15T16:20:07.470Z,22.20
2023-02-15T16:22:42.493Z,21.07
2023-02-15T16:25:29.087Z,22.60
2023-02-15T16:28:13.632Z,25.33
2023-02-15T16:31:12.986Z,21.23
2023-02-15T16:33:48.133Z,26.37
2023-02-15T16:36:30.275Z,24.70
2023-02-15T16:39:13.247Z,27.13
2023-02-15T16:41:50.188Z,24.20
2023-02-15T16:44:25.238Z,26.00
2023-02-15T16:47:00.545Z,24.03
2023-02-15T16:49:35.692Z,27.27
2023-02-15T16:52:20.533Z,23.20
2023-02-15T16:55:03.505Z,27.13
2023-02-15T16:57:43.385Z,35.37
2023-02-15T17:00:23.626Z,28.50
2023-02-15T17:03:22.025Z,25.77
2023-02-15T17:06:00.534Z,28.33
2023-02-15T17:08:44.606Z,28.60
2023-02-15T17:11:38.184Z,26.80
2023-02-15T17:14:21.771Z,26.53
2023-02-15T17:17:23.293Z,27.57
2023-02-15T17:19:58.958Z,28.43
2023-02-15T17:22:34.088Z,28.07
2023-02-15T17:25:24.592Z,26.10
2023-02-15T17:28:00.262Z,30.60
2023-02-15T17:30:39.345Z,26.67
2023-02-15T17:33:34.539Z,32.17
2023-02-15T17:36:23.463Z,27.77
2023-02-15T17:38:59.123Z,29.87
2023-02-15T17:41:38.095Z,30.03
2023-02-15T17:44:14.941Z,32.67
2023-02-15T17:46:49.900Z,31.27
2023-02-15T17:49:34.749Z,27.00
2023-02-15T17:52:14.959Z,31.73
2023-02-15T17:55:08.155Z,29.13
2023-02-15T17:57:43.094Z,34.00
2023-02-15T18:00:37.019Z,29.10
2023-02-15T18:03:33.132Z,30.10
2023-02-15T18:06:38.483Z,29.00
2023-02-15T18:09:38.939Z,31.00
2023-02-15T18:12:31.256Z,30.23
2023-02-15T18:15:12.201Z,31.03
2023-02-15T18:17:48.279Z,31.57
2023-02-15T18:20:34.029Z,34.90
2023-02-15T18:23:15.834Z,37.17
2023-02-15T18:25:50.874Z,37.70
2023-02-15T18:28:27.833Z,32.17
2023-02-15T18:31:03.521Z,28.70
2023-02-15T18:33:49.500Z,32.67
2023-02-15T18:36:43.758Z,32.50
2023-02-15T18:39:31.668Z,32.43
2023-02-15T18:42:27.497Z,33.30
2023-02-15T18:45:21.570Z,29.30
2023-02-15T18:47:56.541Z,31.03
2023-02-15T18:50:34.939Z,33.17
2023-02-15T18:53:19.372Z,31.80
2023-02-15T18:55:54.489Z,29.50
2023-02-15T18:58:29.527Z,33.03
2023-02-15T19:01:05.717Z,30.73
2023-02-15T19:03:41.206Z,30.77
2023-02-15T19:06:23.097Z,28.17
2023-02-15T19:08:57.995Z,29.13
2023-02-15T19:11:33.160Z,29.00
2023-02-15T19:14:31.976Z,32.40
2023-02-15T19:17:19.858Z,29.70
2023-02-15T19:19:54.899Z,31.03
2023-02-15T19:22:32.031Z,34.70
2023-02-15T19:25:08.308Z,32.57
2023-02-15T19:27:44.199Z,31.83
2023-02-15T19:30:25.722Z,28.00
2023-02-15T19:33:02.751Z,29.43
2023-02-15T19:35:37.947Z,28.17
2023-02-15T19:38:19.844Z,30.80
2023-02-15T19:41:06.753Z,33.70
2023-02-15T19:43:41.901Z,32.60
2023-02-15T19:46:19.036Z,31.23
2023-02-15T19:48:54.352Z,30.30
2023-02-15T19:51:29.287Z,37.53
2023-02-15T19:54:30.937Z,33.40
2023-02-15T19:57:09.275Z,34.47
2023-02-15T19:59:44.302Z,33.90
2023-02-15T20:02:20.301Z,32.97
2023-02-15T20:04:55.314Z,33.23
2023-02-15T20:07:30.292Z,30.43
2023-02-15T20:10:25.165Z,29.60
2023-02-15T20:13:00.515Z,31.73
2023-02-15T20:15:36.449Z,33.60
2023-02-15T20:18:13.088Z,35.43
2023-02-15T20:20:52.512Z,37.70
2023-02-15T20:23:38.256Z,41.63
2023-02-15T20:26:18.347Z,30.83
2023-02-15T20:28:53.878Z,33.57
2023-02-15T20:31:29.928Z,32.10
2023-02-15T20:34:05.185Z,40.70
2023-02-15T20:36:41.600Z,29.93
2023-02-15T20:39:20.532Z,34.10
2023-02-15T20:41:55.486Z,34.20
2023-02-15T20:44:34.439Z,33.77
2023-02-15T20:47:09.414Z,39.00
2023-02-15T20:49:44.368Z,36.30
2023-02-15T20:52:20.821Z,35.40
2023-02-15T20:54:55.692Z,35.33
2023-02-15T20:57:30.728Z,35.67
2023-02-15T21:00:09.361Z,32.87
2023-02-15T21:02:55.104Z,38.03
2023-02-15T21:05:33.365Z,35.63
2023-02-15T21:08:22.174Z,34.73
2023-02-15T21:10:57.131Z,35.47
2023-02-15T21:13:35.183Z,40.60
2023-02-15T21:16:10.278Z,38.97
2023-02-15T21:18:45.409Z,38.23
2023-02-15T21:21:23.665Z,40.77
2023-02-15T21:23:58.670Z,36.30
2023-02-15T21:26:33.566Z,34.33
2023-02-15T21:29:17.066Z,33.80
2023-02-15T21:31:52.714Z,34.50
2023-02-15T21:34:27.774Z,34.53
2023-02-15T21:37:02.807Z,31.87
2023-02-15T21:39:37.786Z,28.73
2023-02-15T21:42:31.166Z,31.00
2023-02-15T21:45:36.679Z,30.37
2023-02-15T21:48:11.611Z,37.37
2023-02-15T21:51:05.633Z,31.70
2023-02-15T21:53:46.030Z,29.67
2023-02-15T21:56:22.517Z,38.07
2023-02-15T21:58:57.603Z,40.00
2023-02-15T22:01:32.924Z,37.37
2023-02-15T22:04:15.657Z,33.50
2023-02-15T22:06:50.682Z,36.60
2023-02-15T22:09:27.569Z,37.50
2023-02-15T22:12:02.602Z,30.90
2023-02-15T22:14:40.415Z,31.30
2023-02-15T22:17:20.964Z,33.70
2023-02-15T22:19:57.626Z,33.20
2023-02-15T22:22:33.504Z,31.00
2023-02-15T22:25:09.726Z,36.33
2023-02-15T22:27:46.600Z,38.20
2023-02-15T22:30:36.788Z,36.37
2023-02-15T22:33:29.066Z,32.60
2023-02-15T22:36:04.772Z,31.20
2023-02-15T22:38:39.695Z,30.00
2023-02-15T22:41:15.074Z,28.57
2023-02-15T22:43:50.482Z,29.50
2023-02-15T22:46:26.296Z,29.20
2023-02-15T22:49:01.189Z,26.47
2023-02-15T22:51:36.120Z,28.90
2023-02-15T22:54:11.163Z,32.37
2023-02-15T22:56:55.013Z,34.60
2023-02-15T22:59:34.057Z,29.97
2023-02-15T23:02:13.919Z,31.53
2023-02-15T23:04:48.890Z,27.80
2023-02-15T23:07:23.915Z,30.43
2023-02-15T23:09:58.821Z,33.23
2023-02-15T23:12:53.718Z,28.60
2023-02-15T23:15:28.634Z,28.10
2023-02-15T23:18:28.613Z,26.40
2023-02-15T23:21:20.376Z,25.83
2023-02-15T23:24:10.127Z,26.77
2023-02-15T23:26:45.831Z,33.80
2023-02-15T23:29:23.619Z,26.33
2023-02-15T23:31:58.880Z,27.07
2023-02-15T23:34:34.163Z,24.57
2023-02-15T23:37:14.382Z,30.47
2023-02-15T23:40:07.811Z,31.40
2023-02-15T23:42:46.247Z,32.23
2023-02-15T23:45:24.753Z,28.83
2023-02-15T23:48:18.745Z,29.60
2023-02-15T23:50:53.830Z,32.37
2023-02-15T23:53:28.950Z,30.00
2023-02-15T23:56:05.498Z,30.57
2023-02-15T23:58:43.565Z,27.57
